PWSweather.com
Personal Weather Stations
Station Observations
SHAHALMS1
Eftra, Falkenberg, HA

EftraFalkenberg, HA

Lat: 56.85, Lon: 12.65

Elevation: 140

Station Type:

http://hem.passagen.se/risarp101

High Low Average
Temperature 61.7°F16.5°C 53.6°F12.0°C 57.7°F14.3°C
Dew Point 49.8°F9.9°C 42.4°F5.8°C 46.1°F7.8°C
Winds 17.2 mph 27.7 kmh 3.8 mph 6.1 kmh 10.0 mph W16.1 kmh W
Wind Gusts 29.7 mph47.8 kmh 4.7 mph7.6 kmh 15.0 mph24.1 kmh
Humidity 72% 62% 65%
Pressure 30.39 in1029.1 mb 30.09 in1019.0 mb -
Precipitation 0.00 in0.0 mm - -
Hour Temp Dew Point Humidity Winds Wind Gusts Pressure Precip Precip Rate Daily Precip Total
12:00 AM 55.4°F13.0°C 45.0°F7.2°C 68% 9.7 mph W15.6 kmh W 26.1 mph42.0 kmh 30.36 in1028.1 mb 0.00 in0.0 mm 0.00 in0.0 mm 0.00 in0.0 mm
12:10 AM 55.2°F12.9°C 44.8°F7.1°C 68% 8.0 mph WNW12.9 kmh WNW 17.5 mph28.2 kmh 30.33 in1027.1 mb 0.00 in0.0 mm 0.00 in0.0 mm 0.00 in0.0 mm
12:20 AM 55.0°F12.8°C 44.3°F6.8°C 67% 8.2 mph W13.2 kmh W 17.5 mph28.2 kmh 30.33 in1027.1 mb 0.00 in0.0 mm 0.00 in0.0 mm 0.00 in0.0 mm
12:30 AM 55.0°F12.8°C 44.3°F6.8°C 67% 14.2 mph W22.9 kmh W 17.5 mph28.2 kmh 30.36 in1028.1 mb 0.00 in0.0 mm 0.00 in0.0 mm 0.00 in0.0 mm
12:40 AM 54.9°F12.7°C 44.1°F6.7°C 67% 14.2 mph W22.9 kmh W 17.5 mph28.2 kmh 30.33 in1027.1 mb 0.00 in0.0 mm 0.00 in0.0 mm 0.00 in0.0 mm
12:50 AM 54.7°F12.6°C 43.9°F6.6°C 67% 14.2 mph W22.9 kmh W 17.5 mph28.2 kmh 30.33 in1027.1 mb 0.00 in0.0 mm 0.00 in0.0 mm 0.00 in0.0 mm
01:00 AM 54.7°F12.6°C 43.9°F6.6°C 67% 14.2 mph W22.9 kmh W 17.5 mph28.2 kmh 30.36 in1028.1 mb 0.00 in0.0 mm 0.00 in0.0 mm 0.00 in0.0 mm
01:10 AM 54.7°F12.6°C 44.3°F6.8°C 68% 14.2 mph W22.9 kmh W 17.5 mph28.2 kmh 30.36 in1028.1 mb 0.00 in0.0 mm 0.00 in0.0 mm 0.00 in0.0 mm
01:20 AM 54.7°F12.6°C 44.3°F6.8°C 68% 14.2 mph W22.9 kmh W 17.5 mph28.2 kmh 30.36 in1028.1 mb 0.00 in0.0 mm 0.00 in0.0 mm 0.00 in0.0 mm
01:30 AM 54.7°F12.6°C 44.3°F6.8°C 68% 14.2 mph W22.9 kmh W 17.5 mph28.2 kmh 30.36 in1028.1 mb 0.00 in0.0 mm 0.00 in0.0 mm 0.00 in0.0 mm
01:40 AM 54.9°F12.7°C 44.1°F6.7°C 67% 14.2 mph W22.9 kmh W 17.5 mph28.2 kmh 30.36 in1028.1 mb 0.00 in0.0 mm 0.00 in0.0 mm 0.00 in0.0 mm
01:50 AM 54.9°F12.7°C 44.1°F6.7°C 67% 14.2 mph W22.9 kmh W 17.5 mph28.2 kmh 30.36 in1028.1 mb 0.00 in0.0 mm 0.00 in0.0 mm 0.00 in0.0 mm
02:00 AM 54.7°F12.6°C 43.5°F6.4°C 66% 14.2 mph W22.9 kmh W 17.5 mph28.2 kmh 30.33 in1027.1 mb 0.00 in0.0 mm 0.00 in0.0 mm 0.00 in0.0 mm
02:10 AM 54.5°F12.5°C 43.4°F6.3°C 66% 14.2 mph W22.9 kmh W 17.5 mph28.2 kmh 30.33 in1027.1 mb 0.00 in0.0 mm 0.00 in0.0 mm 0.00 in0.0 mm
02:20 AM 54.5°F12.5°C 43.0°F6.1°C 65% 14.2 mph W22.9 kmh W 17.5 mph28.2 kmh 30.33 in1027.1 mb 0.00 in0.0 mm 0.00 in0.0 mm 0.00 in0.0 mm
02:30 AM 54.3°F12.4°C 42.8°F6.0°C 65% 14.2 mph W22.9 kmh W 17.5 mph28.2 kmh 30.33 in1027.1 mb 0.00 in0.0 mm 0.00 in0.0 mm 0.00 in0.0 mm
02:40 AM 54.3°F12.4°C 42.4°F5.8°C 64% 14.2 mph W22.9 kmh W 17.5 mph28.2 kmh 30.33 in1027.1 mb 0.00 in0.0 mm 0.00 in0.0 mm 0.00 in0.0 mm
02:50 AM 54.1°F12.3°C 42.6°F5.9°C 65% 14.2 mph W22.9 kmh W 17.5 mph28.2 kmh 30.33 in1027.1 mb 0.00 in0.0 mm 0.00 in0.0 mm 0.00 in0.0 mm
03:00 AM 54.1°F12.3°C 42.6°F5.9°C 65% 14.2 mph W22.9 kmh W 17.5 mph28.2 kmh 30.33 in1027.1 mb 0.00 in0.0 mm 0.00 in0.0 mm 0.00 in0.0 mm
03:10 AM 54.3°F12.4°C 42.8°F6.0°C 65% 14.2 mph W22.9 kmh W 17.5 mph28.2 kmh 30.33 in1027.1 mb 0.00 in0.0 mm 0.00 in0.0 mm 0.00 in0.0 mm
03:20 AM 54.3°F12.4°C 43.2°F6.2°C 66% 14.2 mph W22.9 kmh W 17.5 mph28.2 kmh 30.33 in1027.1 mb 0.00 in0.0 mm 0.00 in0.0 mm 0.00 in0.0 mm
03:30 AM 54.3°F12.4°C 43.2°F6.2°C 66% 14.2 mph W22.9 kmh W 17.5 mph28.2 kmh 30.33 in1027.1 mb 0.00 in0.0 mm 0.00 in0.0 mm 0.00 in0.0 mm
03:40 AM 54.1°F12.3°C 43.0°F6.1°C 66% 14.2 mph W22.9 kmh W 17.5 mph28.2 kmh 30.33 in1027.1 mb 0.00 in0.0 mm 0.00 in0.0 mm 0.00 in0.0 mm
03:50 AM 54.1°F12.3°C 43.0°F6.1°C 66% 14.2 mph W22.9 kmh W 17.5 mph28.2 kmh 30.33 in1027.1 mb 0.00 in0.0 mm 0.00 in0.0 mm 0.00 in0.0 mm
04:00 AM 54.1°F12.3°C 43.0°F6.1°C 66% 14.2 mph W22.9 kmh W 17.5 mph28.2 kmh 30.36 in1028.1 mb 0.00 in0.0 mm 0.00 in0.0 mm 0.00 in0.0 mm
04:10 AM 54.0°F12.2°C 42.9°F6.1°C 66% 14.2 mph W22.9 kmh W 17.5 mph28.2 kmh 30.36 in1028.1 mb 0.00 in0.0 mm 0.00 in0.0 mm 0.00 in0.0 mm
04:20 AM 54.0°F12.2°C 42.9°F6.1°C 66% 14.2 mph W22.9 kmh W 17.5 mph28.2 kmh 30.36 in1028.1 mb 0.00 in0.0 mm 0.00 in0.0 mm 0.00 in0.0 mm
04:30 AM 53.8°F12.1°C 42.7°F5.9°C 66% 14.2 mph W22.9 kmh W 17.5 mph28.2 kmh 30.33 in1027.1 mb 0.00 in0.0 mm 0.00 in0.0 mm 0.00 in0.0 mm
04:40 AM 53.6°F12.0°C 42.5°F5.8°C 66% 14.2 mph W22.9 kmh W 17.5 mph28.2 kmh 30.36 in1028.1 mb 0.00 in0.0 mm 0.00 in0.0 mm 0.00 in0.0 mm
04:50 AM 53.6°F12.0°C 42.5°F5.8°C 66% 14.2 mph W22.9 kmh W 17.5 mph28.2 kmh 30.36 in1028.1 mb 0.00 in0.0 mm 0.00 in0.0 mm 0.00 in0.0 mm
05:00 AM 53.6°F12.0°C 42.5°F5.8°C 66% 14.2 mph W22.9 kmh W 17.5 mph28.2 kmh 30.36 in1028.1 mb 0.00 in0.0 mm 0.00 in0.0 mm 0.00 in0.0 mm
05:10 AM 53.8°F12.1°C 42.7°F5.9°C 66% 14.2 mph W22.9 kmh W 17.5 mph28.2 kmh 30.36 in1028.1 mb 0.00 in0.0 mm 0.00 in0.0 mm 0.00 in0.0 mm
05:20 AM 53.8°F12.1°C 42.7°F5.9°C 66% 14.2 mph W22.9 kmh W 17.5 mph28.2 kmh 30.36 in1028.1 mb 0.00 in0.0 mm 0.00 in0.0 mm 0.00 in0.0 mm
05:30 AM 53.8°F12.1°C 42.7°F5.9°C 66% 14.2 mph W22.9 kmh W 17.5 mph28.2 kmh 30.36 in1028.1 mb 0.00 in0.0 mm 0.00 in0.0 mm 0.00 in0.0 mm
05:40 AM 53.8°F12.1°C 43.1°F6.2°C 67% 14.2 mph W22.9 kmh W 17.5 mph28.2 kmh 30.36 in1028.1 mb 0.00 in0.0 mm 0.00 in0.0 mm 0.00 in0.0 mm
05:50 AM 53.8°F12.1°C 43.1°F6.2°C 67% 14.2 mph W22.9 kmh W 17.5 mph28.2 kmh 30.36 in1028.1 mb 0.00 in0.0 mm 0.00 in0.0 mm 0.00 in0.0 mm
06:00 AM 54.0°F12.2°C 43.6°F6.4°C 68% 14.2 mph W22.9 kmh W 17.5 mph28.2 kmh 30.33 in1027.1 mb 0.00 in0.0 mm 0.00 in0.0 mm 0.00 in0.0 mm
06:10 AM 54.0°F12.2°C 43.6°F6.4°C 68% 14.2 mph W22.9 kmh W 17.5 mph28.2 kmh 30.36 in1028.1 mb 0.00 in0.0 mm 0.00 in0.0 mm 0.00 in0.0 mm
06:20 AM 54.0°F12.2°C 44.0°F6.7°C 69% 14.2 mph W22.9 kmh W 17.5 mph28.2 kmh 30.36 in1028.1 mb 0.00 in0.0 mm 0.00 in0.0 mm 0.00 in0.0 mm
06:30 AM 54.0°F12.2°C 44.0°F6.7°C 69% 14.2 mph W22.9 kmh W 17.5 mph28.2 kmh 30.36 in1028.1 mb 0.00 in0.0 mm 0.00 in0.0 mm 0.00 in0.0 mm
06:40 AM 54.0°F12.2°C 44.0°F6.7°C 69% 14.2 mph W22.9 kmh W 17.5 mph28.2 kmh 30.36 in1028.1 mb 0.00 in0.0 mm 0.00 in0.0 mm 0.00 in0.0 mm
06:50 AM 54.3°F12.4°C 44.4°F6.9°C 69% 14.2 mph W22.9 kmh W 17.5 mph28.2 kmh 30.36 in1028.1 mb 0.00 in0.0 mm 0.00 in0.0 mm 0.00 in0.0 mm
07:00 AM 55.2°F12.9°C 45.2°F7.3°C 69% 14.2 mph W22.9 kmh W 17.5 mph28.2 kmh 30.36 in1028.1 mb 0.00 in0.0 mm 0.00 in0.0 mm 0.00 in0.0 mm
07:10 AM 55.6°F13.1°C 45.6°F7.6°C 69% 14.2 mph W22.9 kmh W 17.5 mph28.2 kmh 30.36 in1028.1 mb 0.00 in0.0 mm 0.00 in0.0 mm 0.00 in0.0 mm
07:20 AM 55.8°F13.2°C 45.7°F7.6°C 69% 14.2 mph W22.9 kmh W 17.5 mph28.2 kmh 30.36 in1028.1 mb 0.00 in0.0 mm 0.00 in0.0 mm 0.00 in0.0 mm
07:30 AM 56.3°F13.5°C 45.9°F7.7°C 68% 14.2 mph W22.9 kmh W 17.5 mph28.2 kmh 30.36 in1028.1 mb 0.00 in0.0 mm 0.00 in0.0 mm 0.00 in0.0 mm
07:40 AM 56.8°F13.8°C 46.4°F8.0°C 68% 14.2 mph W22.9 kmh W 17.5 mph28.2 kmh 30.36 in1028.1 mb 0.00 in0.0 mm 0.00 in0.0 mm 0.00 in0.0 mm
07:50 AM 57.2°F14.0°C 46.3°F7.9°C 67% 14.2 mph W22.9 kmh W 17.5 mph28.2 kmh 30.36 in1028.1 mb 0.00 in0.0 mm 0.00 in0.0 mm 0.00 in0.0 mm
08:00 AM 57.2°F14.0°C 46.3°F7.9°C 67% 14.2 mph W22.9 kmh W 17.5 mph28.2 kmh 30.36 in1028.1 mb 0.00 in0.0 mm 0.00 in0.0 mm 0.00 in0.0 mm
08:10 AM 57.6°F14.2°C 46.7°F8.2°C 67% 14.2 mph W22.9 kmh W 17.5 mph28.2 kmh 30.39 in1029.1 mb 0.00 in0.0 mm 0.00 in0.0 mm 0.00 in0.0 mm
08:20 AM 57.7°F14.3°C 46.9°F8.3°C 67% 5.2 mph W8.4 kmh W 6.4 mph10.3 kmh 30.39 in1029.1 mb 0.00 in0.0 mm 0.00 in0.0 mm 0.00 in0.0 mm
08:30 AM 57.9°F14.4°C 47.4°F8.6°C 68% 5.2 mph W8.4 kmh W 6.4 mph10.3 kmh 30.39 in1029.1 mb 0.00 in0.0 mm 0.00 in0.0 mm 0.00 in0.0 mm
08:40 AM 58.5°F14.7°C 47.5°F8.6°C 67% 9.3 mph NW15.0 kmh NW 11.5 mph18.5 kmh 30.39 in1029.1 mb 0.00 in0.0 mm 0.00 in0.0 mm 0.00 in0.0 mm
08:50 AM 59.0°F15.0°C 47.7°F8.7°C 66% 6.3 mph WNW10.1 kmh WNW 11.5 mph18.5 kmh 30.39 in1029.1 mb 0.00 in0.0 mm 0.00 in0.0 mm 0.00 in0.0 mm
09:00 AM 58.8°F14.9°C 47.1°F8.4°C 65% 5.2 mph W8.4 kmh W 6.4 mph10.3 kmh 30.39 in1029.1 mb 0.00 in0.0 mm 0.00 in0.0 mm 0.00 in0.0 mm
09:10 AM 59.2°F15.1°C 47.0°F8.3°C 64% 9.7 mph W15.6 kmh W 12.5 mph20.1 kmh 30.39 in1029.1 mb 0.00 in0.0 mm 0.00 in0.0 mm 0.00 in0.0 mm
09:20 AM 59.0°F15.0°C 46.8°F8.2°C 64% 10.2 mph W16.4 kmh W 12.5 mph20.1 kmh 30.39 in1029.1 mb 0.00 in0.0 mm 0.00 in0.0 mm 0.00 in0.0 mm
09:30 AM 58.8°F14.9°C 46.7°F8.2°C 64% 10.2 mph W16.4 kmh W 12.5 mph20.1 kmh 30.39 in1029.1 mb 0.00 in0.0 mm 0.00 in0.0 mm 0.00 in0.0 mm
09:40 AM 59.0°F15.0°C 47.2°F8.4°C 65% 10.2 mph W16.4 kmh W 12.5 mph20.1 kmh 30.39 in1029.1 mb 0.00 in0.0 mm 0.00 in0.0 mm 0.00 in0.0 mm
09:50 AM 59.2°F15.1°C 47.4°F8.6°C 65% 7.3 mph W11.7 kmh W 8.9 mph14.3 kmh 30.39 in1029.1 mb 0.00 in0.0 mm 0.00 in0.0 mm 0.00 in0.0 mm
10:00 AM 59.7°F15.4°C 48.3°F9.1°C 66% 7.3 mph W11.7 kmh W 8.9 mph14.3 kmh 30.39 in1029.1 mb 0.00 in0.0 mm 0.00 in0.0 mm 0.00 in0.0 mm
10:10 AM 59.5°F15.3°C 47.8°F8.8°C 65% 7.3 mph W11.7 kmh W 8.9 mph14.3 kmh 30.39 in1029.1 mb 0.00 in0.0 mm 0.00 in0.0 mm 0.00 in0.0 mm
10:20 AM 59.2°F15.1°C 47.8°F8.8°C 66% 7.3 mph W11.7 kmh W 8.9 mph14.3 kmh 30.39 in1029.1 mb 0.00 in0.0 mm 0.00 in0.0 mm 0.00 in0.0 mm
10:30 AM 59.0°F15.0°C 47.2°F8.4°C 65% 11.7 mph W18.8 kmh W 16.5 mph26.6 kmh 30.39 in1029.1 mb 0.00 in0.0 mm 0.00 in0.0 mm 0.00 in0.0 mm
10:40 AM 59.0°F15.0°C 47.2°F8.4°C 65% 5.5 mph NNW8.9 kmh NNW 6.8 mph10.9 kmh 30.39 in1029.1 mb 0.00 in0.0 mm 0.00 in0.0 mm 0.00 in0.0 mm
10:50 AM 59.5°F15.3°C 47.8°F8.8°C 65% 5.0 mph NW8.0 kmh NW 6.8 mph10.9 kmh 30.39 in1029.1 mb 0.00 in0.0 mm 0.00 in0.0 mm 0.00 in0.0 mm
11:00 AM 60.1°F15.6°C 49.1°F9.5°C 67% 5.9 mph WNW9.5 kmh WNW 15.7 mph25.3 kmh 30.39 in1029.1 mb 0.00 in0.0 mm 0.00 in0.0 mm 0.00 in0.0 mm
11:10 AM 60.4°F15.8°C 49.0°F9.4°C 66% 6.6 mph NW10.6 kmh NW 19.7 mph31.7 kmh 30.39 in1029.1 mb 0.00 in0.0 mm 0.00 in0.0 mm 0.00 in0.0 mm
11:20 AM 60.1°F15.6°C 47.9°F8.8°C 64% 5.6 mph W9.0 kmh W 11.8 mph19.0 kmh 30.39 in1029.1 mb 0.00 in0.0 mm 0.00 in0.0 mm 0.00 in0.0 mm
11:30 AM 60.1°F15.6°C 47.9°F8.8°C 64% 8.7 mph NNW14.0 kmh NNW 13.6 mph21.9 kmh 30.39 in1029.1 mb 0.00 in0.0 mm 0.00 in0.0 mm 0.00 in0.0 mm
11:40 AM 60.3°F15.7°C 47.2°F8.4°C 62% 8.2 mph NNW13.2 kmh NNW 13.6 mph21.9 kmh 30.39 in1029.1 mb 0.00 in0.0 mm 0.00 in0.0 mm 0.00 in0.0 mm
11:50 AM 60.4°F15.8°C 47.8°F8.8°C 63% 9.2 mph NNW14.8 kmh NNW 12.9 mph20.8 kmh 30.39 in1029.1 mb 0.00 in0.0 mm 0.00 in0.0 mm 0.00 in0.0 mm
12:00 PM 61.0°F16.1°C 48.7°F9.3°C 64% 11.7 mph W18.8 kmh W 16.5 mph26.6 kmh 30.39 in1029.1 mb 0.00 in0.0 mm 0.00 in0.0 mm 0.00 in0.0 mm
12:10 PM 61.7°F16.5°C 49.4°F9.7°C 64% 10.5 mph WNW16.9 kmh WNW 22.2 mph35.7 kmh 30.39 in1029.1 mb 0.00 in0.0 mm 0.00 in0.0 mm 0.00 in0.0 mm
12:20 PM 61.5°F16.4°C 48.8°F9.3°C 63% 10.1 mph W16.3 kmh W 22.2 mph35.7 kmh 30.39 in1029.1 mb 0.00 in0.0 mm 0.00 in0.0 mm 0.00 in0.0 mm
12:30 PM 61.2°F16.2°C 48.5°F9.2°C 63% 7.6 mph W12.2 kmh W 9.3 mph15.0 kmh 30.39 in1029.1 mb 0.00 in0.0 mm 0.00 in0.0 mm 0.00 in0.0 mm
12:40 PM 61.2°F16.2°C 48.9°F9.4°C 64% 7.6 mph W12.2 kmh W 9.3 mph15.0 kmh 30.39 in1029.1 mb 0.00 in0.0 mm 0.00 in0.0 mm 0.00 in0.0 mm
12:50 PM 61.0°F16.1°C 48.7°F9.3°C 64% 7.6 mph W12.2 kmh W 9.3 mph15.0 kmh 30.39 in1029.1 mb 0.00 in0.0 mm 0.00 in0.0 mm 0.00 in0.0 mm
01:00 PM 61.7°F16.5°C 49.8°F9.9°C 65% 6.4 mph W10.3 kmh W 14.0 mph22.5 kmh 30.39 in1029.1 mb 0.00 in0.0 mm 0.00 in0.0 mm 0.00 in0.0 mm
01:10 PM 61.7°F16.5°C 49.4°F9.7°C 64% 9.4 mph WNW15.1 kmh WNW 19.0 mph30.6 kmh 30.39 in1029.1 mb 0.00 in0.0 mm 0.00 in0.0 mm 0.00 in0.0 mm
01:20 PM 61.2°F16.2°C 48.5°F9.2°C 63% 5.9 mph W9.5 kmh W 12.2 mph19.6 kmh 30.39 in1029.1 mb 0.00 in0.0 mm 0.00 in0.0 mm 0.00 in0.0 mm
01:30 PM 61.3°F16.3°C 48.6°F9.2°C 63% 7.7 mph WNW12.4 kmh WNW 14.7 mph23.7 kmh 30.36 in1028.1 mb 0.00 in0.0 mm 0.00 in0.0 mm 0.00 in0.0 mm
01:40 PM 61.3°F16.3°C 48.2°F9.0°C 62% 6.3 mph WSW10.1 kmh WSW 10.7 mph17.2 kmh 30.36 in1028.1 mb 0.00 in0.0 mm 0.00 in0.0 mm 0.00 in0.0 mm
01:50 PM 61.3°F16.3°C 48.6°F9.2°C 63% 6.2 mph WNW10.0 kmh WNW 14.0 mph22.5 kmh 30.36 in1028.1 mb 0.00 in0.0 mm 0.00 in0.0 mm 0.00 in0.0 mm
02:00 PM 61.3°F16.3°C 48.6°F9.2°C 63% 7.3 mph W11.7 kmh W 8.9 mph14.3 kmh 30.36 in1028.1 mb 0.00 in0.0 mm 0.00 in0.0 mm 0.00 in0.0 mm
02:10 PM 61.3°F16.3°C 48.2°F9.0°C 62% 7.5 mph NW12.1 kmh NW 12.5 mph20.1 kmh 30.36 in1028.1 mb 0.00 in0.0 mm 0.00 in0.0 mm 0.00 in0.0 mm
02:20 PM 61.3°F16.3°C 48.6°F9.2°C 63% 7.1 mph NW11.4 kmh NW 10.0 mph16.1 kmh 30.36 in1028.1 mb 0.00 in0.0 mm 0.00 in0.0 mm 0.00 in0.0 mm
02:30 PM 61.2°F16.2°C 48.9°F9.4°C 64% 8.4 mph SW13.5 kmh SW 11.8 mph19.0 kmh 30.36 in1028.1 mb 0.00 in0.0 mm 0.00 in0.0 mm 0.00 in0.0 mm
02:40 PM 61.7°F16.5°C 49.4°F9.7°C 64% 7.6 mph SW12.2 kmh SW 14.0 mph22.5 kmh 30.36 in1028.1 mb 0.00 in0.0 mm 0.00 in0.0 mm 0.00 in0.0 mm
02:50 PM 61.5°F16.4°C 48.8°F9.3°C 63% 7.9 mph W12.7 kmh W 10.0 mph16.1 kmh 30.36 in1028.1 mb 0.00 in0.0 mm 0.00 in0.0 mm 0.00 in0.0 mm
03:00 PM 61.3°F16.3°C 49.1°F9.5°C 64% 8.1 mph SW13.0 kmh SW 11.5 mph18.5 kmh 30.36 in1028.1 mb 0.00 in0.0 mm 0.00 in0.0 mm 0.00 in0.0 mm
03:10 PM 61.3°F16.3°C 49.1°F9.5°C 64% 6.1 mph WSW9.8 kmh WSW 11.5 mph18.5 kmh 30.36 in1028.1 mb 0.00 in0.0 mm 0.00 in0.0 mm 0.00 in0.0 mm
03:20 PM 61.5°F16.4°C 48.8°F9.3°C 63% 5.7 mph WSW9.2 kmh WSW 8.9 mph14.3 kmh 30.36 in1028.1 mb 0.00 in0.0 mm 0.00 in0.0 mm 0.00 in0.0 mm
03:30 PM 61.7°F16.5°C 49.4°F9.7°C 64% 5.7 mph WSW9.2 kmh WSW 8.6 mph13.8 kmh 30.36 in1028.1 mb 0.00 in0.0 mm 0.00 in0.0 mm 0.00 in0.0 mm
03:40 PM 61.5°F16.4°C 48.4°F9.1°C 62% 5.5 mph NW8.9 kmh NW 6.8 mph10.9 kmh 30.33 in1027.1 mb 0.00 in0.0 mm 0.00 in0.0 mm 0.00 in0.0 mm
03:50 PM 61.5°F16.4°C 48.4°F9.1°C 62% 7.1 mph W11.4 kmh W 14.0 mph22.5 kmh 30.33 in1027.1 mb 0.00 in0.0 mm 0.00 in0.0 mm 0.00 in0.0 mm
04:00 PM 61.7°F16.5°C 48.5°F9.2°C 62% 6.4 mph W10.3 kmh W 7.9 mph12.7 kmh 30.33 in1027.1 mb 0.00 in0.0 mm 0.00 in0.0 mm 0.00 in0.0 mm
04:10 PM 61.3°F16.3°C 48.2°F9.0°C 62% 5.4 mph W8.7 kmh W 7.9 mph12.7 kmh 30.33 in1027.1 mb 0.00 in0.0 mm 0.00 in0.0 mm 0.00 in0.0 mm
04:20 PM 61.3°F16.3°C 48.2°F9.0°C 62% 4.2 mph W6.8 kmh W 6.1 mph9.8 kmh 30.33 in1027.1 mb 0.00 in0.0 mm 0.00 in0.0 mm 0.00 in0.0 mm
04:30 PM 61.2°F16.2°C 48.0°F8.9°C 62% 3.8 mph W6.1 kmh W 4.7 mph7.6 kmh 30.27 in1025.1 mb 0.00 in0.0 mm 0.00 in0.0 mm 0.00 in0.0 mm
04:40 PM 61.0°F16.1°C 47.9°F8.8°C 62% 3.8 mph W6.1 kmh W 4.7 mph7.6 kmh 30.27 in1025.1 mb 0.00 in0.0 mm 0.00 in0.0 mm 0.00 in0.0 mm
04:50 PM 60.6°F15.9°C 47.5°F8.6°C 62% 6.3 mph W10.1 kmh W 8.6 mph13.8 kmh 30.27 in1025.1 mb 0.00 in0.0 mm 0.00 in0.0 mm 0.00 in0.0 mm
05:00 PM 60.1°F15.6°C 47.0°F8.3°C 62% 6.1 mph W9.8 kmh W 7.5 mph12.1 kmh 30.27 in1025.1 mb 0.00 in0.0 mm 0.00 in0.0 mm 0.00 in0.0 mm
05:10 PM 59.5°F15.3°C 46.5°F8.1°C 62% 6.1 mph W9.8 kmh W 7.5 mph12.1 kmh 30.30 in1026.1 mb 0.00 in0.0 mm 0.00 in0.0 mm 0.00 in0.0 mm
05:20 PM 59.2°F15.1°C 46.2°F7.9°C 62% 4.9 mph NW7.9 kmh NW 9.7 mph15.6 kmh 30.30 in1026.1 mb 0.00 in0.0 mm 0.00 in0.0 mm 0.00 in0.0 mm
05:30 PM 59.0°F15.0°C 46.4°F8.0°C 63% 3.8 mph W6.1 kmh W 4.7 mph7.6 kmh 30.30 in1026.1 mb 0.00 in0.0 mm 0.00 in0.0 mm 0.00 in0.0 mm
05:40 PM 58.6°F14.8°C 46.1°F7.8°C 63% 3.8 mph N6.1 kmh N 4.7 mph7.6 kmh 30.27 in1025.1 mb 0.00 in0.0 mm 0.00 in0.0 mm 0.00 in0.0 mm
05:50 PM 58.5°F14.7°C 46.3°F7.9°C 64% 4.4 mph NNW7.1 kmh NNW 9.7 mph15.6 kmh 30.27 in1025.1 mb 0.00 in0.0 mm 0.00 in0.0 mm 0.00 in0.0 mm
06:00 PM 58.3°F14.6°C 46.2°F7.9°C 64% 7.9 mph WNW12.7 kmh WNW 9.7 mph15.6 kmh 30.27 in1025.1 mb 0.00 in0.0 mm 0.00 in0.0 mm 0.00 in0.0 mm
06:10 PM 58.3°F14.6°C 46.6°F8.1°C 65% 6.3 mph WSW10.1 kmh WSW 9.7 mph15.6 kmh 30.27 in1025.1 mb 0.00 in0.0 mm 0.00 in0.0 mm 0.00 in0.0 mm
06:20 PM 58.1°F14.5°C 46.8°F8.2°C 66% 5.5 mph S8.9 kmh S 12.2 mph19.6 kmh 30.27 in1025.1 mb 0.00 in0.0 mm 0.00 in0.0 mm 0.00 in0.0 mm
06:30 PM 58.1°F14.5°C 46.8°F8.2°C 66% 12.8 mph S20.6 kmh S 22.9 mph36.9 kmh 30.24 in1024.0 mb 0.00 in0.0 mm 0.00 in0.0 mm 0.00 in0.0 mm
06:40 PM 58.3°F14.6°C 47.4°F8.6°C 67% 7.8 mph S12.6 kmh S 22.9 mph36.9 kmh 30.24 in1024.0 mb 0.00 in0.0 mm 0.00 in0.0 mm 0.00 in0.0 mm
06:50 PM 58.3°F14.6°C 46.6°F8.1°C 65% 5.8 mph WNW9.3 kmh WNW 8.6 mph13.8 kmh 30.24 in1024.0 mb 0.00 in0.0 mm 0.00 in0.0 mm 0.00 in0.0 mm
07:00 PM 58.1°F14.5°C 46.4°F8.0°C 65% 5.5 mph NW8.9 kmh NW 6.8 mph10.9 kmh 30.24 in1024.0 mb 0.00 in0.0 mm 0.00 in0.0 mm 0.00 in0.0 mm
07:10 PM 58.1°F14.5°C 46.0°F7.8°C 64% 5.5 mph NW8.9 kmh NW 6.8 mph10.9 kmh 30.21 in1023.0 mb 0.00 in0.0 mm 0.00 in0.0 mm 0.00 in0.0 mm
07:20 PM 57.9°F14.4°C 45.4°F7.4°C 63% 5.5 mph NW8.9 kmh NW 6.8 mph10.9 kmh 30.21 in1023.0 mb 0.00 in0.0 mm 0.00 in0.0 mm 0.00 in0.0 mm
07:30 PM 57.9°F14.4°C 45.4°F7.4°C 63% 5.5 mph NW8.9 kmh NW 6.8 mph10.9 kmh 30.24 in1024.0 mb 0.00 in0.0 mm 0.00 in0.0 mm 0.00 in0.0 mm
07:40 PM 57.9°F14.4°C 45.4°F7.4°C 63% 9.9 mph S15.9 kmh S 12.2 mph19.6 kmh 30.21 in1023.0 mb 0.00 in0.0 mm 0.00 in0.0 mm 0.00 in0.0 mm
07:50 PM 57.9°F14.4°C 45.4°F7.4°C 63% 9.9 mph S15.9 kmh S 12.2 mph19.6 kmh 30.21 in1023.0 mb 0.00 in0.0 mm 0.00 in0.0 mm 0.00 in0.0 mm
08:00 PM 57.9°F14.4°C 45.4°F7.4°C 63% 9.2 mph WSW14.8 kmh WSW 21.8 mph35.1 kmh 30.24 in1024.0 mb 0.00 in0.0 mm 0.00 in0.0 mm 0.00 in0.0 mm
08:10 PM 57.9°F14.4°C 45.4°F7.4°C 63% 8.1 mph W13.0 kmh W 10.0 mph16.1 kmh 30.24 in1024.0 mb 0.00 in0.0 mm 0.00 in0.0 mm 0.00 in0.0 mm
08:20 PM 57.7°F14.3°C 45.6°F7.6°C 64% 8.4 mph S13.5 kmh S 10.4 mph16.7 kmh 30.24 in1024.0 mb 0.00 in0.0 mm 0.00 in0.0 mm 0.00 in0.0 mm
08:30 PM 57.6°F14.2°C 45.5°F7.5°C 64% 8.4 mph WSW13.5 kmh WSW 10.4 mph16.7 kmh 30.21 in1023.0 mb 0.00 in0.0 mm 0.00 in0.0 mm 0.00 in0.0 mm
08:40 PM 57.6°F14.2°C 45.5°F7.5°C 64% 8.4 mph W13.5 kmh W 10.4 mph16.7 kmh 30.21 in1023.0 mb 0.00 in0.0 mm 0.00 in0.0 mm 0.00 in0.0 mm
08:50 PM 57.4°F14.1°C 45.3°F7.4°C 64% 8.4 mph W13.5 kmh W 10.4 mph16.7 kmh 30.21 in1023.0 mb 0.00 in0.0 mm 0.00 in0.0 mm 0.00 in0.0 mm
09:00 PM 57.2°F14.0°C 45.1°F7.3°C 64% 8.4 mph W13.5 kmh W 10.4 mph16.7 kmh 30.18 in1022.0 mb 0.00 in0.0 mm 0.00 in0.0 mm 0.00 in0.0 mm
09:10 PM 57.0°F13.9°C 45.0°F7.2°C 64% 8.4 mph W13.5 kmh W 10.4 mph16.7 kmh 30.18 in1022.0 mb 0.00 in0.0 mm 0.00 in0.0 mm 0.00 in0.0 mm
09:20 PM 57.0°F13.9°C 45.4°F7.4°C 65% 14.7 mph SSW23.7 kmh SSW 20.4 mph32.8 kmh 30.18 in1022.0 mb 0.00 in0.0 mm 0.00 in0.0 mm 0.00 in0.0 mm
09:30 PM 56.8°F13.8°C 45.2°F7.3°C 65% 16.6 mph NW26.7 kmh NW 20.4 mph32.8 kmh 30.18 in1022.0 mb 0.00 in0.0 mm 0.00 in0.0 mm 0.00 in0.0 mm
09:40 PM 57.0°F13.9°C 45.8°F7.7°C 66% 15.8 mph W25.4 kmh W 20.4 mph32.8 kmh 30.18 in1022.0 mb 0.00 in0.0 mm 0.00 in0.0 mm 0.00 in0.0 mm
09:50 PM 57.2°F14.0°C 45.9°F7.7°C 66% 14.2 mph SW22.9 kmh SW 27.2 mph43.8 kmh 30.18 in1022.0 mb 0.00 in0.0 mm 0.00 in0.0 mm 0.00 in0.0 mm
10:00 PM 57.2°F14.0°C 45.9°F7.7°C 66% 14.5 mph SW23.3 kmh SW 29.0 mph46.7 kmh 30.18 in1022.0 mb 0.00 in0.0 mm 0.00 in0.0 mm 0.00 in0.0 mm
10:10 PM 57.2°F14.0°C 46.3°F7.9°C 67% 14.2 mph WSW22.9 kmh WSW 25.4 mph40.9 kmh 30.18 in1022.0 mb 0.00 in0.0 mm 0.00 in0.0 mm 0.00 in0.0 mm
10:20 PM 57.4°F14.1°C 46.5°F8.1°C 67% 10.4 mph S16.7 kmh S 16.5 mph26.6 kmh 30.18 in1022.0 mb 0.00 in0.0 mm 0.00 in0.0 mm 0.00 in0.0 mm
10:30 PM 57.2°F14.0°C 46.7°F8.2°C 68% 10.2 mph S16.4 kmh S 22.9 mph36.9 kmh 30.15 in1021.0 mb 0.00 in0.0 mm 0.00 in0.0 mm 0.00 in0.0 mm
10:40 PM 57.2°F14.0°C 46.7°F8.2°C 68% 17.0 mph S27.4 kmh S 29.7 mph47.8 kmh 30.15 in1021.0 mb 0.00 in0.0 mm 0.00 in0.0 mm 0.00 in0.0 mm
10:50 PM 57.4°F14.1°C 47.3°F8.5°C 69% 13.6 mph SW21.9 kmh SW 17.2 mph27.7 kmh 30.15 in1021.0 mb 0.00 in0.0 mm 0.00 in0.0 mm 0.00 in0.0 mm
11:00 PM 57.4°F14.1°C 47.3°F8.5°C 69% 9.5 mph WSW15.3 kmh WSW 16.1 mph25.9 kmh 30.15 in1021.0 mb 0.00 in0.0 mm 0.00 in0.0 mm 0.00 in0.0 mm
11:10 PM 57.4°F14.1°C 47.3°F8.5°C 69% 12.7 mph WSW20.4 kmh WSW 21.5 mph34.6 kmh 30.12 in1020.0 mb 0.00 in0.0 mm 0.00 in0.0 mm 0.00 in0.0 mm
11:20 PM 57.6°F14.2°C 47.5°F8.6°C 69% 13.1 mph WSW21.1 kmh WSW 21.5 mph34.6 kmh 30.12 in1020.0 mb 0.00 in0.0 mm 0.00 in0.0 mm 0.00 in0.0 mm
11:30 PM 57.6°F14.2°C 47.5°F8.6°C 69% 17.2 mph W27.7 kmh W 21.8 mph35.1 kmh 30.09 in1019.0 mb 0.00 in0.0 mm 0.00 in0.0 mm 0.00 in0.0 mm
11:40 PM 57.4°F14.1°C 47.7°F8.7°C 70% 14.2 mph WSW22.9 kmh WSW 27.6 mph44.4 kmh 30.12 in1020.0 mb 0.00 in0.0 mm 0.00 in0.0 mm 0.00 in0.0 mm
11:50 PM 57.4°F14.1°C 48.4°F9.1°C 72% 16.6 mph W26.7 kmh W 20.4 mph32.8 kmh 30.12 in1020.0 mb 0.00 in0.0 mm 0.00 in0.0 mm 0.00 in0.0 mm